createdAt,value
2023-03-02T00:01:49.889Z,100.00
2023-03-02T00:04:21.238Z,100.00
2023-03-02T00:06:51.306Z,100.00
2023-03-02T00:09:19.635Z,100.00
2023-03-02T00:11:47.763Z,100.00
2023-03-02T00:14:15.982Z,100.00
2023-03-02T00:16:44.168Z,100.00
2023-03-02T00:19:12.336Z,100.00
2023-03-02T00:21:41.530Z,100.00
2023-03-02T00:24:10.113Z,100.00
2023-03-02T00:26:38.492Z,100.00
2023-03-02T00:29:07.694Z,100.00
2023-03-02T00:31:35.872Z,100.00
2023-03-02T00:34:04.548Z,100.00
2023-03-02T00:36:33.136Z,100.00
2023-03-02T00:39:01.412Z,100.00
2023-03-02T00:41:29.386Z,100.00
2023-03-02T00:43:57.568Z,100.00
2023-03-02T00:46:25.967Z,100.00
2023-03-02T00:48:54.525Z,100.00
2023-03-02T00:51:22.792Z,100.00
2023-03-02T00:53:50.984Z,100.00
2023-03-02T00:56:19.348Z,100.00
2023-03-02T00:58:48.338Z,100.00
2023-03-02T01:01:18.680Z,100.00
2023-03-02T01:03:50.426Z,100.00
2023-03-02T01:06:20.554Z,100.00
2023-03-02T01:08:49.032Z,100.00
2023-03-02T01:11:19.328Z,100.00
2023-03-02T01:13:48.039Z,100.00
2023-03-02T01:16:16.385Z,100.00
2023-03-02T01:18:44.498Z,100.00
2023-03-02T01:21:15.334Z,100.00
2023-03-02T01:23:43.402Z,100.00
2023-03-02T01:26:11.896Z,100.00
2023-03-02T01:28:39.959Z,100.00
2023-03-02T01:31:08.487Z,100.00
2023-03-02T01:33:36.614Z,100.00
2023-03-02T01:36:05.096Z,100.00
2023-03-02T01:38:33.425Z,100.00
2023-03-02T01:41:01.849Z,100.00
2023-03-02T01:43:29.922Z,100.00
2023-03-02T01:46:13.349Z,100.00
2023-03-02T01:49:02.090Z,100.00
2023-03-02T01:51:46.266Z,100.00
2023-03-02T01:54:23.215Z,100.00
2023-03-02T01:56:57.261Z,100.00
2023-03-02T01:59:27.072Z,100.00
2023-03-02T02:01:58.925Z,100.00
2023-03-02T02:04:28.949Z,100.00
2023-03-02T02:07:00.112Z,100.00
2023-03-02T02:09:30.366Z,100.00
2023-03-02T02:11:58.685Z,100.00
2023-03-02T02:14:27.168Z,100.00
2023-03-02T02:16:55.301Z,100.00
2023-03-02T02:19:49.937Z,100.00
2023-03-02T02:22:29.070Z,100.00
2023-03-02T02:24:59.288Z,100.00
2023-03-02T02:27:29.930Z,100.00
2023-03-02T02:29:58.612Z,100.00
2023-03-02T02:32:30.898Z,100.00
2023-03-02T02:35:02.127Z,100.00
2023-03-02T02:37:33.408Z,100.00
2023-03-02T02:40:07.330Z,100.00
2023-03-02T02:42:38.732Z,100.00
2023-03-02T02:45:18.067Z,100.00
2023-03-02T02:47:46.452Z,100.00
2023-03-02T02:50:32.539Z,100.00
2023-03-02T02:53:29.899Z,100.00
2023-03-02T02:55:58.786Z,100.00
2023-03-02T02:58:26.967Z,100.00
2023-03-02T03:00:55.654Z,100.00
2023-03-02T03:03:34.884Z,100.00
2023-03-02T03:06:07.470Z,100.00
2023-03-02T03:08:41.784Z,100.00
2023-03-02T03:11:12.001Z,100.00
2023-03-02T03:13:41.199Z,100.00
2023-03-02T03:16:12.651Z,100.00
2023-03-02T03:18:45.432Z,100.00
2023-03-02T03:21:13.903Z,100.00
2023-03-02T03:23:42.108Z,100.00
2023-03-02T03:26:10.770Z,100.00
2023-03-02T03:28:39.260Z,100.00
2023-03-02T03:31:07.967Z,100.00
2023-03-02T03:33:36.316Z,100.00
2023-03-02T03:36:04.832Z,100.00
2023-03-02T03:38:33.071Z,100.00
2023-03-02T03:41:01.361Z,100.00
2023-03-02T03:43:29.738Z,100.00
2023-03-02T03:45:58.090Z,100.00
2023-03-02T03:48:26.383Z,100.00
2023-03-02T03:50:55.049Z,100.00
2023-03-02T03:53:23.640Z,100.00
2023-03-02T03:55:51.866Z,100.00
2023-03-02T03:58:20.112Z,100.00
2023-03-02T04:00:48.889Z,100.00
2023-03-02T04:03:18.704Z,100.00
2023-03-02T04:05:47.397Z,100.00
2023-03-02T04:08:16.281Z,100.00
2023-03-02T04:10:44.554Z,100.00
2023-03-02T04:13:13.446Z,100.00
2023-03-02T04:15:42.602Z,100.00
2023-03-02T04:18:11.022Z,100.00
2023-03-02T04:20:39.197Z,100.00
2023-03-02T04:23:07.783Z,100.00
2023-03-02T04:25:35.751Z,100.00
2023-03-02T04:28:09.459Z,100.00
2023-03-02T04:30:40.298Z,100.00
2023-03-02T04:33:08.910Z,100.00
2023-03-02T04:35:37.218Z,100.00
2023-03-02T04:38:05.848Z,100.00
2023-03-02T04:40:34.539Z,100.00
2023-03-02T04:43:02.721Z,100.00
2023-03-02T04:45:31.091Z,100.00
2023-03-02T04:47:59.271Z,100.00
2023-03-02T04:50:27.555Z,100.00
2023-03-02T04:52:55.617Z,100.00
2023-03-02T04:55:24.924Z,100.00
2023-03-02T04:57:53.299Z,100.00
2023-03-02T05:00:21.987Z,100.00
2023-03-02T05:02:50.261Z,100.00
2023-03-02T05:05:19.969Z,100.00
2023-03-02T05:07:48.148Z,100.00
2023-03-02T05:10:17.750Z,100.00
2023-03-02T05:12:55.254Z,100.00
2023-03-02T05:15:24.442Z,100.00
2023-03-02T05:17:52.718Z,100.00
2023-03-02T05:20:21.300Z,100.00
2023-03-02T05:22:49.385Z,100.00
2023-03-02T05:25:17.342Z,100.00
2023-03-02T05:27:46.450Z,100.00
2023-03-02T05:30:14.925Z,100.00
2023-03-02T05:32:43.198Z,100.00
2023-03-02T05:35:11.386Z,100.00
2023-03-02T05:37:44.975Z,100.00
2023-03-02T05:40:14.827Z,100.00
2023-03-02T05:42:43.372Z,100.00
2023-03-02T05:45:19.436Z,100.00
2023-03-02T05:47:48.238Z,100.00
2023-03-02T05:50:16.717Z,100.00
2023-03-02T05:52:47.641Z,100.00
2023-03-02T05:55:16.732Z,100.00
2023-03-02T05:57:45.418Z,100.00
2023-03-02T06:00:14.003Z,100.00
2023-03-02T06:02:42.748Z,100.00
2023-03-02T06:05:12.091Z,100.00
2023-03-02T06:07:40.163Z,100.00
2023-03-02T06:10:09.089Z,100.00
2023-03-02T06:12:37.638Z,100.00
2023-03-02T06:15:06.936Z,100.00
2023-03-02T06:17:35.318Z,100.00
2023-03-02T06:20:06.415Z,100.00
2023-03-02T06:22:34.637Z,100.00
2023-03-02T06:25:02.813Z,100.00
2023-03-02T06:27:30.883Z,100.00
2023-03-02T06:29:58.952Z,100.00
2023-03-02T06:32:27.257Z,100.00
2023-03-02T06:34:55.445Z,100.00
2023-03-02T06:37:23.988Z,100.00
2023-03-02T06:39:52.062Z,100.00
2023-03-02T06:42:20.239Z,100.00
2023-03-02T06:44:48.723Z,100.00
2023-03-02T06:47:16.860Z,100.00
2023-03-02T06:49:44.869Z,100.00
2023-03-02T06:52:14.469Z,100.00
2023-03-02T06:54:42.542Z,100.00
2023-03-02T06:57:10.838Z,100.00
2023-03-02T06:59:38.889Z,100.00
2023-03-02T07:02:06.961Z,100.00
2023-03-02T07:04:35.343Z,100.00
2023-03-02T07:07:03.309Z,100.00
2023-03-02T07:09:34.553Z,100.00
2023-03-02T07:12:02.653Z,100.00
2023-03-02T07:14:30.801Z,100.00
2023-03-02T07:17:00.448Z,100.00
2023-03-02T07:19:28.684Z,100.00
2023-03-02T07:21:56.756Z,100.00
2023-03-02T07:24:24.723Z,100.00
2023-03-02T07:26:53.005Z,100.00
2023-03-02T07:29:20.961Z,100.00
2023-03-02T07:31:51.535Z,100.00
2023-03-02T07:34:19.567Z,99.79
2023-03-02T07:36:47.898Z,99.48
2023-03-02T07:39:16.132Z,99.66
2023-03-02T07:41:45.017Z,96.96
2023-03-02T07:44:14.537Z,93.01
2023-03-02T07:46:42.823Z,91.53
2023-03-02T07:49:11.282Z,91.25
2023-03-02T07:51:39.768Z,88.10
2023-03-02T07:54:08.142Z,85.98
2023-03-02T07:56:36.420Z,85.42
2023-03-02T07:59:04.501Z,83.91
2023-03-02T08:01:32.703Z,83.36
2023-03-02T08:04:01.001Z,83.47
2023-03-02T08:06:28.956Z,83.03
2023-03-02T08:08:57.599Z,82.42
2023-03-02T08:11:25.685Z,80.13
2023-03-02T08:13:53.949Z,81.69
2023-03-02T08:16:22.388Z,82.55
2023-03-02T08:18:50.614Z,82.01
2023-03-02T08:21:20.062Z,80.47
2023-03-02T08:23:48.927Z,80.45
2023-03-02T08:26:18.407Z,79.45
2023-03-02T08:28:46.910Z,80.84
2023-03-02T08:31:15.634Z,81.24
2023-03-02T08:33:44.788Z,80.29
2023-03-02T08:36:14.378Z,81.26
2023-03-02T08:38:42.450Z,81.07
2023-03-02T08:41:12.677Z,81.23
2023-03-02T08:43:40.977Z,81.33
2023-03-02T08:46:10.429Z,81.33
2023-03-02T08:48:38.756Z,81.25
2023-03-02T08:51:09.365Z,82.38
2023-03-02T08:53:39.890Z,81.75
2023-03-02T08:56:15.643Z,80.93
2023-03-02T08:58:43.917Z,80.26
2023-03-02T09:01:16.024Z,81.60
2023-03-02T09:03:44.568Z,81.08
2023-03-02T09:06:13.252Z,80.93
2023-03-02T09:08:41.951Z,80.90
2023-03-02T09:11:10.736Z,80.58
2023-03-02T09:13:39.016Z,81.15
2023-03-02T09:16:08.842Z,81.01
2023-03-02T09:18:37.082Z,81.35
2023-03-02T09:21:05.283Z,80.69
2023-03-02T09:23:34.056Z,82.51
2023-03-02T09:26:02.650Z,81.73
2023-03-02T09:28:31.136Z,81.32
2023-03-02T09:31:00.733Z,79.93
2023-03-02T09:33:29.316Z,80.10
2023-03-02T09:35:57.500Z,79.47
2023-03-02T09:38:25.975Z,80.03
2023-03-02T09:41:07.428Z,79.39
2023-03-02T09:43:35.530Z,79.42
2023-03-02T09:46:22.580Z,79.90
2023-03-02T09:49:02.108Z,81.06
2023-03-02T09:51:36.820Z,81.53
2023-03-02T09:54:12.321Z,81.74
2023-03-02T09:56:50.805Z,82.31
2023-03-02T09:59:25.111Z,81.61
2023-03-02T10:02:21.846Z,81.47
2023-03-02T10:04:53.436Z,81.50
2023-03-02T10:07:28.948Z,81.35
2023-03-02T10:10:03.132Z,82.01
2023-03-02T10:12:37.069Z,82.34
2023-03-02T10:15:14.968Z,81.82
2023-03-02T10:17:46.117Z,80.38
2023-03-02T10:20:24.896Z,78.82
2023-03-02T10:22:55.362Z,79.62
2023-03-02T10:25:26.302Z,79.83
2023-03-02T10:28:01.849Z,80.07
2023-03-02T10:30:35.633Z,79.88
2023-03-02T10:33:09.973Z,79.35
2023-03-02T10:35:38.907Z,79.42
2023-03-02T10:38:14.718Z,79.23
2023-03-02T10:40:44.530Z,79.44
2023-03-02T10:43:34.211Z,79.52
2023-03-02T10:46:04.588Z,78.74
2023-03-02T10:48:33.112Z,77.52
2023-03-02T10:51:01.191Z,77.30
2023-03-02T10:53:29.568Z,76.97
2023-03-02T10:55:57.776Z,77.94
2023-03-02T10:58:30.628Z,77.18
2023-03-02T11:01:07.278Z,76.54
2023-03-02T11:03:36.313Z,76.71
2023-03-02T11:06:12.457Z,77.21
2023-03-02T11:08:40.425Z,77.44
2023-03-02T11:11:21.130Z,77.05
2023-03-02T11:13:49.309Z,76.86
2023-03-02T11:16:17.427Z,77.73
2023-03-02T11:18:57.615Z,77.91
2023-03-02T11:21:31.026Z,76.73
2023-03-02T11:24:02.493Z,77.30
2023-03-02T11:26:50.397Z,78.36
2023-03-02T11:29:48.038Z,78.96
2023-03-02T11:32:20.404Z,79.17
2023-03-02T11:34:51.575Z,79.05
2023-03-02T11:37:38.136Z,79.20
2023-03-02T11:40:15.051Z,78.85
2023-03-02T11:42:45.081Z,78.15
2023-03-02T11:45:13.798Z,77.87
2023-03-02T11:47:57.546Z,77.91
2023-03-02T11:50:32.743Z,77.42
2023-03-02T11:53:03.997Z,77.13
2023-03-02T11:55:35.537Z,76.56
2023-03-02T11:58:04.317Z,75.97
2023-03-02T12:00:39.892Z,76.10
2023-03-02T12:03:17.496Z,76.14
2023-03-02T12:05:47.020Z,76.12
2023-03-02T12:08:21.909Z,74.88
2023-03-02T12:11:01.349Z,74.00
2023-03-02T12:13:31.362Z,74.13
2023-03-02T12:16:00.447Z,74.09
2023-03-02T12:18:31.400Z,75.36
2023-03-02T12:21:06.856Z,75.71
2023-03-02T12:23:36.246Z,75.67
2023-03-02T12:26:06.778Z,74.29
2023-03-02T12:28:39.049Z,74.45
2023-03-02T12:31:07.323Z,75.29
2023-03-02T12:33:42.139Z,75.54
2023-03-02T12:36:12.892Z,75.78
2023-03-02T12:38:48.149Z,75.66
2023-03-02T12:41:25.632Z,76.20
2023-03-02T12:44:12.260Z,76.09
2023-03-02T12:46:45.011Z,76.10
2023-03-02T12:49:32.336Z,76.20
2023-03-02T12:52:02.029Z,76.58
2023-03-02T12:54:31.959Z,77.65
2023-03-02T12:57:03.217Z,77.63
2023-03-02T12:59:31.179Z,77.29
2023-03-02T13:02:12.199Z,77.63
2023-03-02T13:04:40.330Z,77.58
2023-03-02T13:07:15.993Z,78.54
2023-03-02T13:09:55.702Z,78.42
2023-03-02T13:12:29.629Z,78.07
2023-03-02T13:14:58.932Z,78.39
2023-03-02T13:17:31.830Z,78.51
2023-03-02T13:20:01.132Z,78.71
2023-03-02T13:22:29.740Z,79.14
2023-03-02T13:25:03.750Z,79.35
2023-03-02T13:27:34.126Z,79.33
2023-03-02T13:30:10.104Z,79.85
2023-03-02T13:32:43.481Z,80.26
2023-03-02T13:35:31.447Z,80.79
2023-03-02T13:38:02.611Z,80.55
2023-03-02T13:40:33.098Z,80.96
2023-03-02T13:43:01.372Z,80.98
2023-03-02T13:45:32.876Z,80.56
2023-03-02T13:48:12.671Z,80.74
2023-03-02T13:50:40.952Z,80.57
2023-03-02T13:53:11.270Z,80.95
2023-03-02T13:55:40.066Z,80.63
2023-03-02T13:58:11.918Z,80.90
2023-03-02T14:00:40.606Z,80.66
2023-03-02T14:03:26.393Z,80.69
2023-03-02T14:05:55.772Z,80.66
2023-03-02T14:08:23.974Z,80.94
2023-03-02T14:10:53.703Z,81.21
2023-03-02T14:13:23.613Z,81.66
2023-03-02T14:15:53.328Z,82.17
2023-03-02T14:18:29.365Z,82.27
2023-03-02T14:20:58.219Z,82.58
2023-03-02T14:23:27.016Z,82.72
2023-03-02T14:25:56.245Z,82.68
2023-03-02T14:28:33.253Z,83.25
2023-03-02T14:31:01.437Z,82.94
2023-03-02T14:33:29.886Z,82.81
2023-03-02T14:35:58.871Z,83.23
2023-03-02T14:38:28.083Z,83.38
2023-03-02T14:40:56.100Z,83.49
2023-03-02T14:43:25.456Z,83.46
2023-03-02T14:45:53.680Z,83.22
2023-03-02T14:48:22.107Z,82.72
2023-03-02T14:50:51.916Z,82.81
2023-03-02T14:53:23.058Z,82.84
2023-03-02T14:55:51.439Z,83.45
2023-03-02T14:58:21.051Z,83.40
2023-03-02T15:00:49.427Z,83.90
2023-03-02T15:03:29.629Z,83.90
2023-03-02T15:06:02.056Z,83.81
2023-03-02T15:08:30.647Z,83.42
2023-03-02T15:10:59.038Z,83.74
2023-03-02T15:13:27.106Z,84.23
2023-03-02T15:15:57.110Z,84.34
2023-03-02T15:18:25.903Z,84.92
2023-03-02T15:20:54.180Z,85.01
2023-03-02T15:23:22.561Z,84.88
2023-03-02T15:25:50.858Z,85.33
2023-03-02T15:28:19.541Z,85.37
2023-03-02T15:30:48.975Z,85.62
2023-03-02T15:33:17.225Z,85.63
2023-03-02T15:35:45.654Z,85.62
2023-03-02T15:38:14.196Z,85.52
2023-03-02T15:40:42.552Z,85.90
2023-03-02T15:43:11.344Z,86.35
2023-03-02T15:45:44.522Z,87.05
2023-03-02T15:48:13.739Z,87.18
2023-03-02T15:50:42.104Z,87.44
2023-03-02T15:53:10.375Z,88.04
2023-03-02T15:55:40.495Z,88.04
2023-03-02T15:58:09.186Z,88.77
2023-03-02T16:00:38.050Z,89.42
2023-03-02T16:03:06.278Z,88.89
2023-03-02T16:05:34.623Z,88.70
2023-03-02T16:08:03.331Z,89.11
2023-03-02T16:10:32.311Z,88.82
2023-03-02T16:13:01.710Z,88.75
2023-03-02T16:15:30.109Z,89.38
2023-03-02T16:17:58.571Z,89.39
2023-03-02T16:20:26.747Z,89.52
2023-03-02T16:22:55.227Z,89.15
2023-03-02T16:25:25.868Z,89.52
2023-03-02T16:27:54.342Z,89.73
2023-03-02T16:30:23.529Z,90.29
2023-03-02T16:32:52.061Z,90.13
2023-03-02T16:35:20.504Z,90.17
2023-03-02T16:37:48.705Z,90.31
2023-03-02T16:40:17.378Z,90.22
2023-03-02T16:42:45.446Z,90.40
2023-03-02T16:45:14.019Z,90.54
2023-03-02T16:47:41.995Z,90.76
2023-03-02T16:50:11.187Z,90.99
2023-03-02T16:52:39.465Z,91.61
2023-03-02T16:55:16.030Z,91.59
2023-03-02T16:57:44.312Z,91.49
2023-03-02T17:00:15.209Z,91.24
2023-03-02T17:02:43.953Z,91.57
2023-03-02T17:05:13.343Z,91.73
2023-03-02T17:07:41.516Z,91.69
2023-03-02T17:10:12.558Z,91.39
2023-03-02T17:12:40.834Z,91.12
2023-03-02T17:15:11.474Z,91.01
2023-03-02T17:17:41.544Z,91.21
2023-03-02T17:20:12.223Z,91.17
2023-03-02T17:22:40.394Z,91.11
2023-03-02T17:25:09.185Z,91.24
2023-03-02T17:27:37.765Z,91.27
2023-03-02T17:30:06.448Z,91.29
2023-03-02T17:32:34.644Z,91.59
2023-03-02T17:35:02.937Z,91.50
2023-03-02T17:37:31.768Z,91.60
2023-03-02T17:39:59.787Z,91.65
2023-03-02T17:42:28.546Z,91.52
2023-03-02T17:44:56.740Z,92.00
2023-03-02T17:47:25.264Z,92.21
2023-03-02T17:49:54.815Z,91.92
2023-03-02T17:52:23.092Z,91.97
2023-03-02T17:54:53.786Z,92.11
2023-03-02T17:57:23.236Z,92.03
2023-03-02T17:59:51.507Z,92.18
2023-03-02T18:02:19.897Z,92.15
2023-03-02T18:04:47.953Z,92.24
2023-03-02T18:07:16.587Z,92.67
2023-03-02T18:09:45.126Z,92.54
2023-03-02T18:12:13.401Z,92.25
2023-03-02T18:14:41.522Z,92.40
2023-03-02T18:17:10.465Z,92.21
2023-03-02T18:19:39.046Z,92.35
2023-03-02T18:22:07.220Z,92.06
2023-03-02T18:24:35.929Z,92.18
2023-03-02T18:27:04.091Z,92.03
2023-03-02T18:29:33.385Z,92.28
2023-03-02T18:32:01.591Z,92.41
2023-03-02T18:34:30.252Z,92.47
2023-03-02T18:36:58.427Z,92.44
2023-03-02T18:39:26.711Z,92.47
2023-03-02T18:41:55.084Z,92.57
2023-03-02T18:44:28.499Z,92.52
2023-03-02T18:46:57.601Z,92.82
2023-03-02T18:49:25.822Z,92.73
2023-03-02T18:51:56.757Z,92.80
2023-03-02T18:54:24.960Z,93.00
2023-03-02T18:56:53.339Z,92.89
2023-03-02T18:59:21.712Z,93.02
2023-03-02T19:01:50.190Z,93.00
2023-03-02T19:04:18.873Z,93.00
2023-03-02T19:06:46.960Z,93.50
2023-03-02T19:09:15.031Z,93.58
2023-03-02T19:11:43.102Z,93.55
2023-03-02T19:14:11.273Z,94.08
2023-03-02T19:16:40.303Z,94.09
2023-03-02T19:19:08.453Z,94.06
2023-03-02T19:21:36.764Z,94.61
2023-03-02T19:24:05.221Z,95.05
2023-03-02T19:26:33.895Z,94.95
2023-03-02T19:29:01.900Z,95.40
2023-03-02T19:31:31.443Z,95.19
2023-03-02T19:34:00.285Z,95.73
2023-03-02T19:36:28.476Z,95.74
2023-03-02T19:38:56.625Z,96.01
2023-03-02T19:41:24.938Z,96.39
2023-03-02T19:43:54.287Z,97.03
2023-03-02T19:46:24.695Z,96.92
2023-03-02T19:48:52.726Z,97.31
2023-03-02T19:51:21.046Z,97.40
2023-03-02T19:53:49.229Z,97.21
2023-03-02T19:56:19.718Z,97.49
2023-03-02T19:58:49.708Z,97.48
2023-03-02T20:01:23.507Z,97.65
2023-03-02T20:03:52.748Z,97.73
2023-03-02T20:06:21.923Z,98.15
2023-03-02T20:08:49.955Z,98.43
2023-03-02T20:11:18.329Z,98.94
2023-03-02T20:13:46.510Z,98.98
2023-03-02T20:16:16.000Z,98.72
2023-03-02T20:18:45.701Z,99.03
2023-03-02T20:21:13.890Z,98.96
2023-03-02T20:23:42.577Z,98.99
2023-03-02T20:26:11.058Z,99.45
2023-03-02T20:28:39.528Z,99.32
2023-03-02T20:31:09.583Z,99.69
2023-03-02T20:33:46.741Z,99.76
2023-03-02T20:36:16.602Z,99.85
2023-03-02T20:38:51.490Z,99.74
2023-03-02T20:41:20.294Z,100.00
2023-03-02T20:43:48.559Z,99.98
2023-03-02T20:46:27.353Z,100.00
2023-03-02T20:48:55.738Z,100.00
2023-03-02T20:51:24.240Z,100.00
2023-03-02T20:53:53.276Z,100.00
2023-03-02T20:56:21.519Z,100.00
2023-03-02T20:58:49.887Z,100.00
2023-03-02T21:01:19.928Z,100.00
2023-03-02T21:03:48.077Z,100.00
2023-03-02T21:06:16.462Z,100.00
2023-03-02T21:08:47.438Z,100.00
2023-03-02T21:11:16.683Z,100.00
2023-03-02T21:13:45.931Z,100.00
2023-03-02T21:16:19.398Z,100.00
2023-03-02T21:18:47.760Z,100.00
2023-03-02T21:21:16.719Z,100.00
2023-03-02T21:23:46.659Z,100.00
2023-03-02T21:26:16.013Z,100.00
2023-03-02T21:28:44.491Z,100.00
2023-03-02T21:31:14.838Z,100.00
2023-03-02T21:33:43.037Z,100.00
2023-03-02T21:36:22.731Z,100.00
2023-03-02T21:38:52.318Z,100.00
2023-03-02T21:41:20.854Z,100.00
2023-03-02T21:43:49.751Z,100.00
2023-03-02T21:46:20.167Z,100.00
2023-03-02T21:48:49.288Z,100.00
2023-03-02T21:51:17.807Z,100.00
2023-03-02T21:53:46.387Z,100.00
2023-03-02T21:56:20.683Z,100.00
2023-03-02T21:58:49.669Z,100.00
2023-03-02T22:01:17.802Z,100.00
2023-03-02T22:03:45.847Z,100.00
2023-03-02T22:06:21.640Z,100.00
2023-03-02T22:08:49.899Z,100.00
2023-03-02T22:11:21.801Z,100.00
2023-03-02T22:13:50.621Z,100.00
2023-03-02T22:16:20.343Z,100.00
2023-03-02T22:18:49.567Z,100.00
2023-03-02T22:21:26.472Z,100.00
2023-03-02T22:23:56.978Z,100.00
2023-03-02T22:26:25.102Z,100.00
2023-03-02T22:28:53.387Z,100.00
2023-03-02T22:31:22.256Z,100.00
2023-03-02T22:33:50.214Z,100.00
2023-03-02T22:36:22.113Z,100.00
2023-03-02T22:38:50.771Z,100.00
2023-03-02T22:41:19.913Z,100.00
2023-03-02T22:43:49.641Z,100.00
2023-03-02T22:46:20.242Z,100.00
2023-03-02T22:48:49.952Z,100.00
2023-03-02T22:51:22.323Z,100.00
2023-03-02T22:53:58.589Z,100.00
2023-03-02T22:56:27.581Z,100.00
2023-03-02T22:58:57.084Z,100.00
2023-03-02T23:01:30.848Z,100.00
2023-03-02T23:04:08.193Z,100.00
2023-03-02T23:06:45.280Z,100.00
2023-03-02T23:09:17.130Z,100.00
2023-03-02T23:11:45.606Z,100.00
2023-03-02T23:14:27.436Z,100.00
2023-03-02T23:17:15.041Z,100.00
2023-03-02T23:19:43.066Z,100.00
2023-03-02T23:22:11.445Z,100.00
2023-03-02T23:24:39.875Z,100.00
2023-03-02T23:27:09.706Z,100.00
2023-03-02T23:29:38.107Z,100.00
2023-03-02T23:32:06.452Z,100.00
2023-03-02T23:34:34.565Z,100.00
2023-03-02T23:37:02.704Z,100.00
2023-03-02T23:39:30.735Z,100.00
2023-03-02T23:41:58.977Z,100.00
2023-03-02T23:44:26.989Z,100.00
2023-03-02T23:46:55.003Z,100.00
2023-03-02T23:49:22.979Z,100.00
2023-03-02T23:51:51.126Z,100.00
2023-03-02T23:54:19.229Z,100.00
2023-03-02T23:56:47.287Z,100.00
2023-03-02T23:59:15.546Z,100.00
